createdAt,value
2023-01-19T00:00:22.625Z,90.59
2023-01-19T00:03:24.485Z,90.20
2023-01-19T00:06:26.485Z,90.15
2023-01-19T00:09:33.400Z,90.00
2023-01-19T00:12:35.374Z,90.13
2023-01-19T00:15:37.192Z,90.33
2023-01-19T00:18:39.995Z,90.53
2023-01-19T00:21:42.081Z,90.77
2023-01-19T00:24:45.065Z,91.10
2023-01-19T00:27:49.495Z,90.57
2023-01-19T00:30:52.233Z,91.01
2023-01-19T00:33:54.240Z,90.43
2023-01-19T00:36:56.099Z,91.05
2023-01-19T00:39:57.950Z,91.36
2023-01-19T00:43:00.625Z,91.33
2023-01-19T00:46:02.974Z,92.12
2023-01-19T00:49:05.556Z,91.43
2023-01-19T00:52:07.420Z,91.63
2023-01-19T00:55:11.602Z,91.98
2023-01-19T00:58:13.507Z,91.99
2023-01-19T01:01:15.451Z,91.82
2023-01-19T01:04:17.636Z,91.56
2023-01-19T01:07:19.500Z,91.07
2023-01-19T01:10:25.212Z,91.03
2023-01-19T01:13:28.166Z,91.26
2023-01-19T01:16:30.285Z,90.60
2023-01-19T01:19:32.198Z,90.91
2023-01-19T01:22:34.069Z,91.09
2023-01-19T01:25:37.912Z,90.68
2023-01-19T01:28:40.139Z,91.00
2023-01-19T01:31:42.085Z,91.49
2023-01-19T01:34:44.011Z,91.57
2023-01-19T01:38:02.972Z,90.59
2023-01-19T01:41:05.185Z,90.37
2023-01-19T01:44:49.723Z,90.72
2023-01-19T01:47:54.082Z,91.13
2023-01-19T01:51:24.194Z,90.82
2023-01-19T01:54:32.294Z,91.22
2023-01-19T01:57:41.937Z,91.98
2023-01-19T02:01:02.457Z,91.93
2023-01-19T02:04:04.484Z,91.65
2023-01-19T02:07:24.993Z,91.24
2023-01-19T02:10:45.436Z,91.85
2023-01-19T02:13:47.758Z,91.45
2023-01-19T02:16:49.795Z,91.50
2023-01-19T02:19:51.721Z,91.46
2023-01-19T02:22:59.373Z,91.19
2023-01-19T02:26:02.270Z,91.33
2023-01-19T02:29:07.860Z,91.52
2023-01-19T02:32:09.784Z,91.11
2023-01-19T02:35:13.059Z,91.51
2023-01-19T02:38:16.361Z,92.02
2023-01-19T02:41:25.499Z,92.03
2023-01-19T02:44:29.470Z,91.50
2023-01-19T02:47:39.012Z,91.76
2023-01-19T02:50:46.967Z,91.29
2023-01-19T02:53:51.844Z,91.08
2023-01-19T02:57:14.033Z,91.05
2023-01-19T03:00:28.139Z,90.98
2023-01-19T03:03:34.979Z,91.47
2023-01-19T03:06:47.061Z,91.24
2023-01-19T03:10:02.856Z,91.55
2023-01-19T03:13:10.636Z,91.13
2023-01-19T03:16:42.837Z,90.91
2023-01-19T03:19:48.666Z,91.21
2023-01-19T03:22:57.487Z,90.96
2023-01-19T03:26:01.033Z,91.32
2023-01-19T03:29:03.855Z,91.56
2023-01-19T03:32:12.506Z,91.89
2023-01-19T03:35:17.825Z,90.92
2023-01-19T03:38:26.247Z,91.33
2023-01-19T03:41:29.781Z,91.50
2023-01-19T03:44:34.923Z,91.08
2023-01-19T03:47:36.792Z,90.63
2023-01-19T03:50:38.871Z,91.31
2023-01-19T03:53:41.817Z,91.16
2023-01-19T03:56:44.759Z,90.74
2023-01-19T03:59:46.601Z,90.79
2023-01-19T04:02:48.643Z,90.89
2023-01-19T04:05:50.509Z,90.62
2023-01-19T04:08:52.530Z,90.86
2023-01-19T04:11:54.615Z,90.30
2023-01-19T04:14:56.518Z,91.33
2023-01-19T04:17:59.627Z,91.43
2023-01-19T04:21:06.633Z,91.52
2023-01-19T04:24:10.286Z,91.18
2023-01-19T04:27:12.267Z,91.84
2023-01-19T04:30:14.506Z,91.42
2023-01-19T04:33:16.409Z,90.75
2023-01-19T04:36:18.406Z,91.47
2023-01-19T04:39:20.428Z,90.69
2023-01-19T04:42:23.093Z,90.59
2023-01-19T04:46:00.560Z,90.67
2023-01-19T04:49:02.453Z,91.10
2023-01-19T04:52:07.506Z,90.96
2023-01-19T04:55:10.205Z,90.42
2023-01-19T04:58:12.654Z,90.81
2023-01-19T05:01:14.570Z,92.13
2023-01-19T05:04:16.460Z,92.55
2023-01-19T05:07:18.380Z,91.65
2023-01-19T05:10:20.544Z,91.44
2023-01-19T05:13:22.438Z,92.71
2023-01-19T05:16:24.370Z,92.53
2023-01-19T05:23:35.349Z,91.63
2023-01-19T05:26:37.526Z,91.49
2023-01-19T05:29:39.347Z,91.13
2023-01-19T05:32:41.267Z,91.16
2023-01-19T05:35:43.194Z,90.98
2023-01-19T05:38:45.792Z,90.41
2023-01-19T05:41:47.817Z,90.33
2023-01-19T05:44:49.737Z,90.11
2023-01-19T05:47:51.601Z,91.03
2023-01-19T05:50:57.908Z,91.16
2023-01-19T05:54:01.087Z,91.71
2023-01-19T05:57:03.658Z,90.60
2023-01-19T06:00:06.432Z,91.57
2023-01-19T06:03:11.065Z,91.43
2023-01-19T06:06:15.000Z,91.74
2023-01-19T06:09:17.520Z,91.29
2023-01-19T06:12:19.647Z,90.61
2023-01-19T06:15:21.569Z,90.52
2023-01-19T06:18:23.645Z,90.28
2023-01-19T06:21:25.664Z,90.52
2023-01-19T06:24:27.972Z,91.01
2023-01-19T06:27:30.151Z,91.80
2023-01-19T06:30:32.029Z,91.19
2023-01-19T06:33:35.561Z,91.11
2023-01-19T06:36:38.483Z,90.94
2023-01-19T06:39:41.124Z,91.21
2023-01-19T06:42:42.980Z,92.14
2023-01-19T06:45:46.103Z,91.30
2023-01-19T06:48:48.200Z,91.79
2023-01-19T06:51:50.453Z,91.24
2023-01-19T06:54:52.273Z,91.19
2023-01-19T06:57:58.807Z,91.65
2023-01-19T07:01:06.309Z,91.37
2023-01-19T07:04:08.613Z,90.98
2023-01-19T07:07:10.485Z,90.92
2023-01-19T07:10:15.723Z,90.98
2023-01-19T07:13:17.797Z,91.57
2023-01-19T07:16:20.016Z,91.27
2023-01-19T07:19:21.893Z,91.07
2023-01-19T07:22:24.380Z,91.52
2023-01-19T07:25:27.103Z,91.55
2023-01-19T07:28:29.990Z,91.25
2023-01-19T07:31:32.001Z,91.35
2023-01-19T07:34:34.640Z,91.47
2023-01-19T07:37:36.591Z,91.67
2023-01-19T07:40:38.531Z,91.46
2023-01-19T07:43:40.433Z,91.70
2023-01-19T07:46:43.367Z,91.97
2023-01-19T07:49:45.470Z,91.66
2023-01-19T07:52:48.386Z,91.56
2023-01-19T07:55:55.145Z,91.92
2023-01-19T07:58:57.841Z,91.25
2023-01-19T08:02:00.301Z,91.15
2023-01-19T08:05:02.913Z,91.48
2023-01-19T08:08:05.596Z,91.30
2023-01-19T08:11:08.580Z,91.44
2023-01-19T08:14:10.699Z,91.64
2023-01-19T08:17:14.045Z,91.26
2023-01-19T08:20:15.998Z,91.40
2023-01-19T08:23:18.680Z,91.56
2023-01-19T08:26:27.448Z,91.30
2023-01-19T08:29:31.887Z,91.48
2023-01-19T08:32:33.796Z,91.44
2023-01-19T08:35:41.864Z,91.87
2023-01-19T08:38:47.113Z,91.82
2023-01-19T08:41:48.948Z,91.33
2023-01-19T08:44:58.139Z,91.20
2023-01-19T08:48:01.229Z,91.29
2023-01-19T08:51:03.396Z,90.88
2023-01-19T08:54:05.513Z,90.83
2023-01-19T08:57:07.687Z,90.88
2023-01-19T09:00:11.264Z,90.77
2023-01-19T09:03:14.038Z,90.06
2023-01-19T09:06:18.445Z,90.07
2023-01-19T09:09:20.319Z,90.73
2023-01-19T09:12:22.260Z,90.82
2023-01-19T09:15:24.136Z,90.30
2023-01-19T09:18:26.146Z,90.55
2023-01-19T09:21:28.885Z,90.41
2023-01-19T09:24:30.914Z,90.26
2023-01-19T09:27:32.915Z,89.29
2023-01-19T09:30:37.341Z,89.42
2023-01-19T09:33:39.348Z,89.26
2023-01-19T09:36:41.201Z,89.29
2023-01-19T09:39:43.338Z,89.31
2023-01-19T09:42:53.734Z,89.06
2023-01-19T09:45:59.392Z,88.76
2023-01-19T09:49:14.589Z,89.00
2023-01-19T09:52:18.431Z,89.03
2023-01-19T09:55:25.508Z,89.69
2023-01-19T09:58:28.896Z,89.36
2023-01-19T10:01:57.749Z,89.13
2023-01-19T10:05:03.725Z,88.84
2023-01-19T10:08:18.348Z,88.94
2023-01-19T10:11:42.049Z,88.49
2023-01-19T10:15:15.201Z,88.77
2023-01-19T10:22:24.554Z,91.26
2023-01-19T10:25:27.439Z,89.05
2023-01-19T10:28:30.093Z,89.36
2023-01-19T10:31:33.574Z,88.58
2023-01-19T10:34:35.781Z,88.26
2023-01-19T10:37:38.439Z,89.04
2023-01-19T10:40:55.221Z,88.50
2023-01-19T10:44:03.213Z,88.85
2023-01-19T10:47:11.767Z,89.49
2023-01-19T10:50:32.191Z,89.45
2023-01-19T10:53:34.464Z,90.26
2023-01-19T10:56:38.527Z,90.00
2023-01-19T10:59:51.548Z,89.71
2023-01-19T11:02:53.532Z,89.80
2023-01-19T11:06:13.654Z,89.67
2023-01-19T11:09:18.204Z,90.59
2023-01-19T11:12:23.074Z,90.02
2023-01-19T11:15:40.906Z,89.41
2023-01-19T11:18:43.756Z,90.06
2023-01-19T11:21:45.601Z,89.49
2023-01-19T11:24:48.045Z,89.48
2023-01-19T11:27:51.992Z,89.54
2023-01-19T11:31:14.804Z,89.90
2023-01-19T11:34:38.692Z,89.29
2023-01-19T11:37:43.204Z,89.39
2023-01-19T11:40:53.056Z,89.41
2023-01-19T11:43:58.120Z,89.07
2023-01-19T11:47:06.152Z,89.36
2023-01-19T11:50:31.787Z,88.98
2023-01-19T11:53:34.616Z,89.31
2023-01-19T11:56:36.798Z,89.47
2023-01-19T11:59:38.722Z,89.58
2023-01-19T12:02:47.781Z,89.27
2023-01-19T12:05:53.964Z,89.54
2023-01-19T12:09:03.127Z,89.03
2023-01-19T12:12:08.593Z,90.05
2023-01-19T12:15:38.237Z,89.21
2023-01-19T12:18:45.269Z,89.68
2023-01-19T12:21:48.488Z,90.08
2023-01-19T12:25:01.126Z,90.88
2023-01-19T12:28:03.447Z,90.28
2023-01-19T12:31:05.587Z,90.08
2023-01-19T12:34:39.813Z,89.31
2023-01-19T12:37:43.371Z,89.71
2023-01-19T12:40:45.494Z,90.61
2023-01-19T12:43:49.972Z,90.24
2023-01-19T12:47:04.287Z,90.57
2023-01-19T12:50:16.921Z,90.54
2023-01-19T12:53:21.269Z,90.08
2023-01-19T12:56:36.683Z,90.78
2023-01-19T12:59:39.624Z,91.55
2023-01-19T13:02:44.128Z,91.00
2023-01-19T13:05:56.486Z,90.43
2023-01-19T13:09:00.495Z,91.53
2023-01-19T13:12:14.562Z,91.52
2023-01-19T13:15:35.651Z,91.81
2023-01-19T13:18:41.817Z,91.87
2023-01-19T13:21:48.574Z,91.57
2023-01-19T13:25:11.330Z,91.86
2023-01-19T13:28:16.321Z,91.32
2023-01-19T13:31:19.490Z,91.65
2023-01-19T13:34:25.623Z,91.63
2023-01-19T13:37:35.592Z,92.08
2023-01-19T13:40:39.078Z,91.83
2023-01-19T13:43:42.446Z,92.10
2023-01-19T13:46:46.687Z,91.97
2023-01-19T13:49:55.513Z,92.38
2023-01-19T13:52:59.509Z,92.23
2023-01-19T13:56:17.197Z,92.43
2023-01-19T13:59:19.334Z,92.46
2023-01-19T14:02:21.469Z,92.62
2023-01-19T14:05:34.385Z,92.05
2023-01-19T14:08:36.597Z,91.65
2023-01-19T14:11:38.522Z,91.83
2023-01-19T14:14:46.936Z,92.83
2023-01-19T14:18:08.991Z,92.06
2023-01-19T14:21:13.522Z,92.62
2023-01-19T14:24:19.062Z,92.00
2023-01-19T14:27:24.805Z,91.66
2023-01-19T14:30:27.915Z,91.19
2023-01-19T14:33:40.099Z,91.19
2023-01-19T14:36:44.321Z,91.45
2023-01-19T14:39:49.137Z,90.29
2023-01-19T14:42:57.539Z,89.89
2023-01-19T14:46:45.149Z,91.21
2023-01-19T14:49:48.084Z,90.02
2023-01-19T14:53:00.689Z,90.08
2023-01-19T14:56:05.598Z,91.30
2023-01-19T14:59:10.992Z,91.04
2023-01-19T15:02:13.283Z,90.25
2023-01-19T15:05:15.915Z,90.33
2023-01-19T15:08:25.504Z,90.93
2023-01-19T15:11:31.339Z,90.70
2023-01-19T15:14:33.260Z,90.18
2023-01-19T15:17:35.239Z,90.98
2023-01-19T15:20:37.159Z,89.63
2023-01-19T15:23:39.002Z,89.98
2023-01-19T15:26:42.729Z,88.93
2023-01-19T15:29:46.072Z,88.81
2023-01-19T15:32:48.139Z,90.64
2023-01-19T15:36:05.430Z,90.16
2023-01-19T15:39:07.346Z,89.48
2023-01-19T15:42:15.753Z,89.47
2023-01-19T15:45:34.944Z,88.07
2023-01-19T15:48:37.855Z,88.83
2023-01-19T15:51:39.956Z,90.63
2023-01-19T15:54:41.765Z,91.07
2023-01-19T15:57:43.722Z,90.12
2023-01-19T16:00:45.606Z,90.49
2023-01-19T16:03:48.021Z,90.63
2023-01-19T16:06:50.145Z,90.06
2023-01-19T16:14:17.477Z,91.24
2023-01-19T16:17:20.166Z,91.31
2023-01-19T16:20:22.061Z,90.63
2023-01-19T16:23:24.122Z,90.12
2023-01-19T16:26:28.495Z,89.63
2023-01-19T16:29:31.594Z,89.01
2023-01-19T16:32:35.100Z,88.76
2023-01-19T16:35:36.940Z,87.82
2023-01-19T16:38:38.892Z,88.39
2023-01-19T16:41:41.651Z,90.29
2023-01-19T16:44:43.732Z,90.47
2023-01-19T16:47:50.492Z,89.62
2023-01-19T16:51:12.692Z,91.42
2023-01-19T16:54:17.411Z,91.79
2023-01-19T16:57:19.197Z,91.31
2023-01-19T17:00:21.772Z,90.01
2023-01-19T17:03:23.655Z,90.87
2023-01-19T17:06:26.340Z,90.43
2023-01-19T17:09:29.111Z,89.53
2023-01-19T17:12:32.339Z,89.96
2023-01-19T17:15:34.895Z,90.70
2023-01-19T17:18:37.981Z,89.83
2023-01-19T17:21:39.949Z,90.56
2023-01-19T17:24:43.218Z,90.73
2023-01-19T17:27:45.232Z,91.02
2023-01-19T17:30:48.177Z,91.18
2023-01-19T17:33:50.699Z,91.20
2023-01-19T17:36:53.026Z,89.97
2023-01-19T17:39:56.517Z,90.47
2023-01-19T17:42:58.697Z,90.26
2023-01-19T17:46:00.600Z,90.40
2023-01-19T17:49:05.311Z,90.21
2023-01-19T17:52:07.589Z,89.79
2023-01-19T17:55:10.264Z,89.46
2023-01-19T17:58:12.987Z,89.06
2023-01-19T18:01:26.524Z,89.74
2023-01-19T18:04:29.816Z,89.94
2023-01-19T18:07:33.490Z,88.96
2023-01-19T18:10:35.545Z,88.76
2023-01-19T18:13:38.444Z,89.00
2023-01-19T18:16:40.493Z,88.80
2023-01-19T18:19:42.866Z,89.72
2023-01-19T18:22:44.993Z,89.06
2023-01-19T18:25:47.172Z,88.80
2023-01-19T18:28:49.664Z,88.52
2023-01-19T18:31:52.226Z,87.68
2023-01-19T18:34:54.467Z,88.84
2023-01-19T18:38:32.253Z,87.64
2023-01-19T18:41:37.047Z,86.06
2023-01-19T18:44:39.337Z,87.53
2023-01-19T18:47:41.500Z,87.40
2023-01-19T18:50:43.950Z,86.05
2023-01-19T18:53:46.241Z,85.56
2023-01-19T18:56:50.577Z,85.85
2023-01-19T18:59:52.504Z,85.55
2023-01-19T19:02:55.672Z,84.65
2023-01-19T19:06:02.972Z,83.77
2023-01-19T19:09:05.474Z,84.21
2023-01-19T19:12:09.709Z,84.42
2023-01-19T19:15:13.951Z,83.21
2023-01-19T19:18:16.374Z,84.15
2023-01-19T19:21:19.930Z,84.77
2023-01-19T19:24:22.723Z,84.63
2023-01-19T19:27:24.744Z,85.76
2023-01-19T19:30:27.057Z,85.08
2023-01-19T19:33:29.392Z,85.39
2023-01-19T19:36:32.577Z,86.08
2023-01-19T19:39:35.997Z,86.68
2023-01-19T19:42:39.149Z,86.45
2023-01-19T19:45:41.154Z,86.64
2023-01-19T19:48:43.417Z,86.64
2023-01-19T19:51:45.656Z,86.82
2023-01-19T19:54:48.593Z,85.80
2023-01-19T19:57:50.442Z,85.98
2023-01-19T20:00:53.045Z,85.16
2023-01-19T20:04:03.876Z,85.18
2023-01-19T20:07:06.149Z,85.67
2023-01-19T20:10:08.867Z,85.27
2023-01-19T20:13:12.231Z,85.45
2023-01-19T20:16:19.778Z,85.23
2023-01-19T20:19:21.745Z,84.82
2023-01-19T20:22:24.106Z,85.02
2023-01-19T20:25:26.545Z,85.30
2023-01-19T20:28:28.948Z,86.31
2023-01-19T20:31:32.849Z,86.10
2023-01-19T20:34:35.707Z,86.02
2023-01-19T20:37:37.860Z,84.94
2023-01-19T20:40:40.535Z,84.15
2023-01-19T20:43:42.421Z,84.95
2023-01-19T20:46:44.729Z,85.49
2023-01-19T20:49:46.940Z,85.58
2023-01-19T20:52:50.068Z,85.77
2023-01-19T20:55:52.541Z,85.87
2023-01-19T20:58:54.894Z,85.69
2023-01-19T21:01:57.152Z,85.80
2023-01-19T21:04:59.445Z,86.56
2023-01-19T21:08:01.661Z,86.94
2023-01-19T21:36:53.872Z,86.63
2023-01-19T21:52:11.967Z,87.93
2023-01-19T21:56:17.898Z,88.02
2023-01-19T22:39:06.098Z,87.96
2023-01-19T22:42:07.946Z,87.97
2023-01-19T22:45:10.157Z,87.97
2023-01-19T22:48:12.055Z,88.16
2023-01-19T22:51:14.927Z,88.83
2023-01-19T22:54:16.804Z,88.74
2023-01-19T22:57:18.733Z,90.19
2023-01-19T23:00:21.288Z,90.30
2023-01-19T23:03:23.284Z,90.66
2023-01-19T23:06:27.890Z,90.93
2023-01-19T23:09:29.995Z,90.90
2023-01-19T23:12:32.022Z,91.13
2023-01-19T23:15:34.885Z,91.03
2023-01-19T23:18:37.156Z,91.02
2023-01-19T23:21:39.388Z,90.95
2023-01-19T23:24:41.177Z,91.14
2023-01-19T23:27:43.027Z,91.60
2023-01-19T23:30:44.951Z,91.75
2023-01-19T23:33:46.863Z,92.06
2023-01-19T23:36:48.772Z,91.86
2023-01-19T23:39:50.679Z,91.37
2023-01-19T23:42:54.879Z,91.54
2023-01-19T23:45:56.825Z,91.30
2023-01-19T23:48:59.010Z,91.10
2023-01-19T23:52:00.911Z,92.05
2023-01-19T23:55:02.881Z,92.21
2023-01-19T23:58:05.027Z,92.28
